sensor_id;sensor_type;location;lat;lon;timestamp;pressure;altitude;pressure_sealevel;temperature;humidity
43553;BME280;29153;42.696;23.218;2023-04-05T00:01:08;93987.89;;;0.21;99.90
43553;BME280;29153;42.696;23.218;2023-04-05T00:03:37;93983.88;;;0.28;99.69
43553;BME280;29153;42.696;23.218;2023-04-05T00:06:07;93979.84;;;0.23;100.00
43553;BME280;29153;42.696;23.218;2023-04-05T00:08:36;93985.17;;;0.28;100.00
43553;BME280;29153;42.696;23.218;2023-04-05T00:11:14;93980.13;;;0.24;100.00
43553;BME280;29153;42.696;23.218;2023-04-05T00:13:44;93982.95;;;0.22;99.82
43553;BME280;29153;42.696;23.218;2023-04-05T00:16:12;93898.88;;;-0.50;100.00
43553;BME280;29153;42.696;23.218;2023-04-05T00:18:41;93984.94;;;0.09;100.00
43553;BME280;29153;42.696;23.218;2023-04-05T00:21:15;93978.44;;;0.09;100.00
43553;BME280;29153;42.696;23.218;2023-04-05T00:23:47;93985.95;;;0.17;100.00
43553;BME280;29153;42.696;23.218;2023-04-05T00:26:34;93984.59;;;0.05;99.70
43553;BME280;29153;42.696;23.218;2023-04-05T00:28:59;93980.32;;;0.11;99.53
43553;BME280;29153;42.696;23.218;2023-04-05T00:31:36;93984.04;;;0.03;99.40
43553;BME280;29153;42.696;23.218;2023-04-05T00:34:00;93984.84;;;0.04;99.86
43553;BME280;29153;42.696;23.218;2023-04-05T00:36:27;93978.23;;;-0.20;100.00
43553;BME280;29153;42.696;23.218;2023-04-05T00:38:55;93988.64;;;-0.20;100.00
43553;BME280;29153;42.696;23.218;2023-04-05T00:41:23;93988.42;;;-0.09;100.00
43553;BME280;29153;42.696;23.218;2023-04-05T00:43:50;93986.98;;;-0.14;100.00
43553;BME280;29153;42.696;23.218;2023-04-05T00:46:18;93988.13;;;-0.10;100.00
43553;BME280;29153;42.696;23.218;2023-04-05T00:48:46;93987.12;;;-0.09;100.00
43553;BME280;29153;42.696;23.218;2023-04-05T00:51:14;93986.87;;;-0.08;100.00
43553;BME280;29153;42.696;23.218;2023-04-05T00:53:42;93980.16;;;-0.06;99.89
43553;BME280;29153;42.696;23.218;2023-04-05T00:56:15;93984.59;;;-0.16;100.00
43553;BME280;29153;42.696;23.218;2023-04-05T00:58:44;93987.17;;;-0.07;99.95
43553;BME280;29153;42.696;23.218;2023-04-05T01:01:16;93988.84;;;-0.12;99.03
43553;BME280;29153;42.696;23.218;2023-04-05T01:03:51;93996.89;;;-0.14;99.38
43553;BME280;29153;42.696;23.218;2023-04-05T01:09:33;93992.72;;;-0.03;99.92
43553;BME280;29153;42.696;23.218;2023-04-05T01:14:57;93991.12;;;-0.04;100.00
43553;BME280;29153;42.696;23.218;2023-04-05T01:17:30;93993.95;;;0.04;99.91
43553;BME280;29153;42.696;23.218;2023-04-05T01:34:11;94000.69;;;-0.07;99.59
43553;BME280;29153;42.696;23.218;2023-04-05T01:36:42;94006.83;;;-0.02;99.68
43553;BME280;29153;42.696;23.218;2023-04-05T01:39:12;94008.42;;;-0.01;98.72
43553;BME280;29153;42.696;23.218;2023-04-05T01:41:40;94007.23;;;0.05;98.95
43553;BME280;29153;42.696;23.218;2023-04-05T01:44:08;94008.53;;;0.05;99.46
43553;BME280;29153;42.696;23.218;2023-04-05T01:46:35;94008.83;;;0.06;98.96
43553;BME280;29153;42.696;23.218;2023-04-05T01:49:03;94006.30;;;0.08;98.69
43553;BME280;29153;42.696;23.218;2023-04-05T01:51:31;94007.28;;;-0.05;99.25
43553;BME280;29153;42.696;23.218;2023-04-05T01:54:00;94009.47;;;0.10;98.89
43553;BME280;29153;42.696;23.218;2023-04-05T01:56:29;94006.97;;;0.04;99.16
43553;BME280;29153;42.696;23.218;2023-04-05T01:58:57;94009.25;;;0.12;97.97
43553;BME280;29153;42.696;23.218;2023-04-05T02:01:27;94008.80;;;0.15;97.45
43553;BME280;29153;42.696;23.218;2023-04-05T02:03:55;94007.98;;;0.23;97.90
43553;BME280;29153;42.696;23.218;2023-04-05T02:06:23;94005.67;;;0.24;97.83
43553;BME280;29153;42.696;23.218;2023-04-05T02:08:56;94009.58;;;0.24;97.46
43553;BME280;29153;42.696;23.218;2023-04-05T02:11:21;94009.14;;;0.39;96.86
43553;BME280;29153;42.696;23.218;2023-04-05T02:13:49;94012.50;;;0.37;96.53
43553;BME280;29153;42.696;23.218;2023-04-05T02:16:16;94009.70;;;0.29;96.81
43553;BME280;29153;42.696;23.218;2023-04-05T02:18:44;94008.09;;;0.17;97.65
43553;BME280;29153;42.696;23.218;2023-04-05T02:21:15;94015.90;;;0.17;97.57
43553;BME280;29153;42.696;23.218;2023-04-05T02:23:41;94013.16;;;0.12;97.62
43553;BME280;29153;42.696;23.218;2023-04-05T02:28:45;94013.51;;;0.15;97.93
43553;BME280;29153;42.696;23.218;2023-04-05T02:31:14;94009.63;;;0.06;98.05
43553;BME280;29153;42.696;23.218;2023-04-05T02:33:45;94012.58;;;0.10;97.73
43553;BME280;29153;42.696;23.218;2023-04-05T02:36:14;93930.13;;;-0.38;98.25
43553;BME280;29153;42.696;23.218;2023-04-05T02:38:42;94015.84;;;0.26;97.97
43553;BME280;29153;42.696;23.218;2023-04-05T02:41:12;94017.70;;;0.16;97.60
43553;BME280;29153;42.696;23.218;2023-04-05T02:43:42;94011.52;;;0.29;97.72
43553;BME280;29153;42.696;23.218;2023-04-05T02:46:09;94005.16;;;0.25;97.51
43553;BME280;29153;42.696;23.218;2023-04-05T02:48:38;94010.37;;;0.25;97.84
43553;BME280;29153;42.696;23.218;2023-04-05T02:51:12;94012.69;;;0.24;97.57
43553;BME280;29153;42.696;23.218;2023-04-05T02:53:39;94005.19;;;0.16;98.40
43553;BME280;29153;42.696;23.218;2023-04-05T02:56:12;94012.98;;;0.25;98.29
43553;BME280;29153;42.696;23.218;2023-04-05T03:01:24;94006.12;;;0.21;97.55
43553;BME280;29153;42.696;23.218;2023-04-05T03:03:50;94002.41;;;0.29;98.11
43553;BME280;29153;42.696;23.218;2023-04-05T03:06:24;94007.77;;;0.25;98.57
43553;BME280;29153;42.696;23.218;2023-04-05T03:08:50;94007.27;;;0.25;98.67
43553;BME280;29153;42.696;23.218;2023-04-05T03:11:17;94007.58;;;0.38;98.16
43553;BME280;29153;42.696;23.218;2023-04-05T03:13:46;94005.07;;;0.43;97.47
43553;BME280;29153;42.696;23.218;2023-04-05T03:16:13;94009.40;;;0.49;96.58
43553;BME280;29153;42.696;23.218;2023-04-05T03:18:41;94007.28;;;0.37;97.18
43553;BME280;29153;42.696;23.218;2023-04-05T03:21:09;94005.98;;;0.37;97.52
43553;BME280;29153;42.696;23.218;2023-04-05T03:23:37;93999.44;;;0.46;97.58
43553;BME280;29153;42.696;23.218;2023-04-05T03:26:05;94004.39;;;0.36;97.35
43553;BME280;29153;42.696;23.218;2023-04-05T03:28:32;94000.80;;;0.28;97.99
43553;BME280;29153;42.696;23.218;2023-04-05T03:31:00;94007.16;;;0.32;97.81
43553;BME280;29153;42.696;23.218;2023-04-05T03:33:28;94011.20;;;0.37;97.87
43553;BME280;29153;42.696;23.218;2023-04-05T03:35:56;94002.05;;;0.46;97.96
43553;BME280;29153;42.696;23.218;2023-04-05T03:38:23;93996.02;;;0.34;98.49
43553;BME280;29153;42.696;23.218;2023-04-05T03:40:51;93998.62;;;0.34;98.68
43553;BME280;29153;42.696;23.218;2023-04-05T03:43:18;94003.25;;;0.32;98.19
43553;BME280;29153;42.696;23.218;2023-04-05T03:45:46;94004.05;;;0.32;97.88
43553;BME280;29153;42.696;23.218;2023-04-05T03:48:14;94007.45;;;0.33;97.68
43553;BME280;29153;42.696;23.218;2023-04-05T03:50:43;94014.70;;;0.22;98.29
43553;BME280;29153;42.696;23.218;2023-04-05T03:53:10;94012.09;;;0.22;98.74
43553;BME280;29153;42.696;23.218;2023-04-05T03:55:38;94016.59;;;0.24;98.91
43553;BME280;29153;42.696;23.218;2023-04-05T03:58:08;94017.28;;;0.31;99.18
43553;BME280;29153;42.696;23.218;2023-04-05T04:00:35;94018.08;;;0.31;98.73
43553;BME280;29153;42.696;23.218;2023-04-05T04:03:03;94019.01;;;0.37;98.84
43553;BME280;29153;42.696;23.218;2023-04-05T04:05:31;94025.57;;;0.39;98.59
43553;BME280;29153;42.696;23.218;2023-04-05T04:08:03;94026.28;;;0.47;98.08
43553;BME280;29153;42.696;23.218;2023-04-05T04:10:32;94027.67;;;0.40;98.40
43553;BME280;29153;42.696;23.218;2023-04-05T04:13:15;94030.56;;;0.41;98.73
43553;BME280;29153;42.696;23.218;2023-04-05T04:15:34;94028.65;;;0.48;99.21
43553;BME280;29153;42.696;23.218;2023-04-05T04:18:01;94025.06;;;0.40;99.74
43553;BME280;29153;42.696;23.218;2023-04-05T04:20:29;94031.70;;;0.45;99.90
43553;BME280;29153;42.696;23.218;2023-04-05T04:22:57;94034.36;;;0.48;100.00
43553;BME280;29153;42.696;23.218;2023-04-05T04:25:25;94022.39;;;0.58;100.00
43553;BME280;29153;42.696;23.218;2023-04-05T04:27:54;94031.06;;;0.61;100.00
43553;BME280;29153;42.696;23.218;2023-04-05T04:30:21;94029.83;;;0.64;100.00
43553;BME280;29153;42.696;23.218;2023-04-05T04:32:50;94036.59;;;0.53;100.00
43553;BME280;29153;42.696;23.218;2023-04-05T04:35:23;94031.84;;;0.50;100.00
43553;BME280;29153;42.696;23.218;2023-04-05T04:37:59;94037.28;;;0.60;100.00
43553;BME280;29153;42.696;23.218;2023-04-05T04:40:31;94044.25;;;0.57;100.00
43553;BME280;29153;42.696;23.218;2023-04-05T04:42:57;94046.67;;;0.50;100.00
43553;BME280;29153;42.696;23.218;2023-04-05T04:45:25;94043.73;;;0.46;100.00
43553;BME280;29153;42.696;23.218;2023-04-05T04:47:53;94038.68;;;0.42;100.00
43553;BME280;29153;42.696;23.218;2023-04-05T04:50:21;94049.78;;;0.49;100.00
43553;BME280;29153;42.696;23.218;2023-04-05T04:52:49;94048.35;;;0.44;99.00
43553;BME280;29153;42.696;23.218;2023-04-05T04:55:16;94050.29;;;0.49;97.12
43553;BME280;29153;42.696;23.218;2023-04-05T04:57:44;94048.05;;;0.43;97.36
43553;BME280;29153;42.696;23.218;2023-04-05T05:00:12;94046.91;;;0.39;98.11
43553;BME280;29153;42.696;23.218;2023-04-05T05:02:42;94052.20;;;0.41;98.33
43553;BME280;29153;42.696;23.218;2023-04-05T05:05:10;94053.16;;;0.38;99.39
43553;BME280;29153;42.696;23.218;2023-04-05T05:07:39;94049.13;;;0.33;98.76
43553;BME280;29153;42.696;23.218;2023-04-05T05:10:09;94050.05;;;0.38;99.60
43553;BME280;29153;42.696;23.218;2023-04-05T05:12:37;94054.28;;;0.51;99.42
43553;BME280;29153;42.696;23.218;2023-04-05T05:15:06;94055.29;;;0.50;99.74
43553;BME280;29153;42.696;23.218;2023-04-05T05:17:33;94054.63;;;0.55;99.81
43553;BME280;29153;42.696;23.218;2023-04-05T05:20:02;94046.25;;;0.43;100.00
43553;BME280;29153;42.696;23.218;2023-04-05T05:22:37;94054.70;;;0.48;100.00
43553;BME280;29153;42.696;23.218;2023-04-05T05:25:06;94055.58;;;0.51;100.00
43553;BME280;29153;42.696;23.218;2023-04-05T05:33:38;94063.94;;;0.74;98.83
43553;BME280;29153;42.696;23.218;2023-04-05T05:36:10;94060.66;;;0.78;97.92
43553;BME280;29153;42.696;23.218;2023-04-05T05:38:49;94060.66;;;0.78;96.92
43553;BME280;29153;42.696;23.218;2023-04-05T05:41:21;94061.59;;;0.84;96.84
43553;BME280;29153;42.696;23.218;2023-04-05T05:43:49;94055.45;;;0.78;96.90
43553;BME280;29153;42.696;23.218;2023-04-05T05:46:24;94064.11;;;1.02;96.01
43553;BME280;29153;42.696;23.218;2023-04-05T05:48:51;94065.66;;;1.24;95.21
43553;BME280;29153;42.696;23.218;2023-04-05T05:51:20;94058.44;;;1.40;94.91
43553;BME280;29153;42.696;23.218;2023-04-05T05:53:51;94061.31;;;1.53;93.86
43553;BME280;29153;42.696;23.218;2023-04-05T05:56:29;94058.64;;;1.62;93.80
43553;BME280;29153;42.696;23.218;2023-04-05T05:58:52;94057.13;;;1.77;93.03
43553;BME280;29153;42.696;23.218;2023-04-05T06:01:22;94061.34;;;1.93;92.13
43553;BME280;29153;42.696;23.218;2023-04-05T06:03:55;94065.36;;;1.83;93.25
43553;BME280;29153;42.696;23.218;2023-04-05T06:06:22;94063.77;;;1.82;88.92
43553;BME280;29153;42.696;23.218;2023-04-05T06:08:50;94074.50;;;1.83;87.71
43553;BME280;29153;42.696;23.218;2023-04-05T06:11:18;94071.20;;;1.88;89.23
43553;BME280;29153;42.696;23.218;2023-04-05T06:13:48;94070.33;;;1.85;89.42
43553;BME280;29153;42.696;23.218;2023-04-05T06:16:18;94065.36;;;1.83;89.64
43553;BME280;29153;42.696;23.218;2023-04-05T06:18:45;94063.77;;;1.82;89.37
43553;BME280;29153;42.696;23.218;2023-04-05T06:21:14;94066.48;;;1.88;89.89
43553;BME280;29153;42.696;23.218;2023-04-05T06:23:42;94071.52;;;1.92;89.27
43553;BME280;29153;42.696;23.218;2023-04-05T06:26:15;94069.89;;;2.02;89.88
43553;BME280;29153;42.696;23.218;2023-04-05T06:28:40;94065.48;;;2.17;89.32
43553;BME280;29153;42.696;23.218;2023-04-05T06:31:08;94077.09;;;2.23;88.88
43553;BME280;29153;42.696;23.218;2023-04-05T06:33:36;94072.16;;;2.39;88.52
43553;BME280;29153;42.696;23.218;2023-04-05T06:36:03;94071.25;;;2.61;88.53
43553;BME280;29153;42.696;23.218;2023-04-05T06:38:31;94078.09;;;2.79;90.33
43553;BME280;29153;42.696;23.218;2023-04-05T06:40:59;94075.48;;;2.96;87.16
43553;BME280;29153;42.696;23.218;2023-04-05T06:43:26;94082.71;;;3.05;86.88
43553;BME280;29153;42.696;23.218;2023-04-05T06:45:57;94084.91;;;3.11;86.04
43553;BME280;29153;42.696;23.218;2023-04-05T06:48:25;94087.94;;;2.89;83.85
43553;BME280;29153;42.696;23.218;2023-04-05T06:50:59;94097.06;;;2.86;85.08
43553;BME280;29153;42.696;23.218;2023-04-05T06:53:28;94094.73;;;2.73;83.47
43553;BME280;29153;42.696;23.218;2023-04-05T06:55:57;94102.89;;;2.91;85.37
43553;BME280;29153;42.696;23.218;2023-04-05T06:58:25;94105.36;;;3.14;86.00
43553;BME280;29153;42.696;23.218;2023-04-05T07:00:54;94107.77;;;3.01;83.15
43553;BME280;29153;42.696;23.218;2023-04-05T07:03:22;94112.80;;;2.74;83.27
43553;BME280;29153;42.696;23.218;2023-04-05T07:05:54;94117.34;;;2.96;82.94
43553;BME280;29153;42.696;23.218;2023-04-05T07:08:26;94118.30;;;2.90;84.85
43553;BME280;29153;42.696;23.218;2023-04-05T07:10:54;94120.92;;;2.90;82.32
43553;BME280;29153;42.696;23.218;2023-04-05T07:13:22;94129.88;;;2.65;82.15
43553;BME280;29153;42.696;23.218;2023-04-05T07:15:51;94127.30;;;2.96;82.68
43553;BME280;29153;42.696;23.218;2023-04-05T07:18:23;94134.72;;;3.02;82.18
43553;BME280;29153;42.696;23.218;2023-04-05T07:20:50;94125.70;;;3.26;83.77
43553;BME280;29153;42.696;23.218;2023-04-05T07:23:21;94133.11;;;3.48;81.40
43553;BME280;29153;42.696;23.218;2023-04-05T07:25:49;94138.95;;;3.36;81.60
43553;BME280;29153;42.696;23.218;2023-04-05T07:28:17;94138.86;;;3.31;82.27
43553;BME280;29153;42.696;23.218;2023-04-05T07:30:44;94142.48;;;3.28;80.25
43553;BME280;29153;42.696;23.218;2023-04-05T07:33:12;94146.30;;;3.37;79.57
43553;BME280;29153;42.696;23.218;2023-04-05T07:35:40;94144.22;;;3.39;79.42
43553;BME280;29153;42.696;23.218;2023-04-05T07:38:08;94146.69;;;3.45;80.74
43553;BME280;29153;42.696;23.218;2023-04-05T07:40:36;94148.28;;;3.46;80.22
43553;BME280;29153;42.696;23.218;2023-04-05T07:43:04;94152.58;;;3.38;79.57
43553;BME280;29153;42.696;23.218;2023-04-05T07:45:32;94146.32;;;3.39;81.43
43553;BME280;29153;42.696;23.218;2023-04-05T07:47:59;94151.16;;;3.31;79.06
43553;BME280;29153;42.696;23.218;2023-04-05T07:50:27;94147.19;;;3.11;81.59
43553;BME280;29153;42.696;23.218;2023-04-05T07:52:54;94150.42;;;3.33;83.10
43553;BME280;29153;42.696;23.218;2023-04-05T07:55:22;94165.25;;;3.13;80.74
43553;BME280;29153;42.696;23.218;2023-04-05T07:57:50;94175.82;;;3.04;78.79
43553;BME280;29153;42.696;23.218;2023-04-05T08:00:17;94175.31;;;3.04;80.56
43553;BME280;29153;42.696;23.218;2023-04-05T08:02:45;94175.88;;;2.92;79.77
43553;BME280;29153;42.696;23.218;2023-04-05T08:05:13;94181.55;;;2.87;80.29
43553;BME280;29153;42.696;23.218;2023-04-05T08:07:41;94175.92;;;2.66;81.75
43553;BME280;29153;42.696;23.218;2023-04-05T08:10:09;94181.16;;;2.66;81.31
43553;BME280;29153;42.696;23.218;2023-04-05T08:12:37;94181.75;;;2.57;81.58
43553;BME280;29153;42.696;23.218;2023-04-05T08:15:05;94174.05;;;2.50;83.83
43553;BME280;29153;42.696;23.218;2023-04-05T08:17:32;94167.63;;;2.55;84.87
43553;BME280;29153;42.696;23.218;2023-04-05T08:20:00;94174.02;;;2.76;85.10
43553;BME280;29153;42.696;23.218;2023-04-05T08:22:28;94175.31;;;2.62;85.66
43553;BME280;29153;42.696;23.218;2023-04-05T08:24:55;94179.22;;;2.73;84.28
43553;BME280;29153;42.696;23.218;2023-04-05T08:27:23;94185.00;;;2.90;83.33
43553;BME280;29153;42.696;23.218;2023-04-05T08:29:51;94181.34;;;3.05;83.28
43553;BME280;29153;42.696;23.218;2023-04-05T08:32:18;94185.48;;;2.87;83.71
43553;BME280;29153;42.696;23.218;2023-04-05T08:34:46;94188.38;;;2.73;83.49
43553;BME280;29153;42.696;23.218;2023-04-05T08:37:13;94185.59;;;2.66;84.41
43553;BME280;29153;42.696;23.218;2023-04-05T08:39:41;94184.30;;;2.80;84.53
43553;BME280;29153;42.696;23.218;2023-04-05T08:42:11;94190.20;;;3.04;84.23
43553;BME280;29153;42.696;23.218;2023-04-05T08:44:40;94190.37;;;3.11;83.36
43553;BME280;29153;42.696;23.218;2023-04-05T08:47:10;94191.90;;;2.96;84.05
43553;BME280;29153;42.696;23.218;2023-04-05T08:49:44;94192.66;;;2.94;81.54
43553;BME280;29153;42.696;23.218;2023-04-05T08:52:12;94192.25;;;2.99;82.31
43553;BME280;29153;42.696;23.218;2023-04-05T08:54:40;94193.62;;;3.18;82.98
43553;BME280;29153;42.696;23.218;2023-04-05T08:57:08;94192.13;;;3.39;84.09
43553;BME280;29153;42.696;23.218;2023-04-05T08:59:37;94206.67;;;3.16;81.03
43553;BME280;29153;42.696;23.218;2023-04-05T09:02:17;94199.67;;;3.36;82.26
43553;BME280;29153;42.696;23.218;2023-04-05T09:04:43;94205.48;;;3.24;80.23
43553;BME280;29153;42.696;23.218;2023-04-05T09:07:13;94209.31;;;3.33;80.72
43553;BME280;29153;42.696;23.218;2023-04-05T09:09:45;94207.00;;;3.50;81.40
43553;BME280;29153;42.696;23.218;2023-04-05T09:12:11;94214.77;;;3.45;80.64
43553;BME280;29153;42.696;23.218;2023-04-05T09:14:39;94214.95;;;3.41;82.51
43553;BME280;29153;42.696;23.218;2023-04-05T09:17:09;94209.05;;;3.48;84.03
43553;BME280;29153;42.696;23.218;2023-04-05T09:19:36;94215.70;;;3.73;83.43
43553;BME280;29153;42.696;23.218;2023-04-05T09:22:06;94210.03;;;3.95;80.68
43553;BME280;29153;42.696;23.218;2023-04-05T09:24:39;94217.13;;;4.13;79.33
43553;BME280;29153;42.696;23.218;2023-04-05T09:27:15;94223.29;;;4.05;77.77
43553;BME280;29153;42.696;23.218;2023-04-05T09:29:49;94221.74;;;3.73;77.62
43553;BME280;29153;42.696;23.218;2023-04-05T09:32:14;94214.95;;;3.91;78.08
43553;BME280;29153;42.696;23.218;2023-04-05T09:34:42;94215.39;;;3.86;76.77
43553;BME280;29153;42.696;23.218;2023-04-05T09:37:18;94209.13;;;3.87;79.35
43553;BME280;29153;42.696;23.218;2023-04-05T09:39:47;94212.86;;;3.57;78.71
43553;BME280;29153;42.696;23.218;2023-04-05T09:42:18;94211.38;;;3.47;78.22
43553;BME280;29153;42.696;23.218;2023-04-05T09:44:55;94217.21;;;3.52;80.96
43553;BME280;29153;42.696;23.218;2023-04-05T09:47:25;94211.36;;;3.61;78.92
43553;BME280;29153;42.696;23.218;2023-04-05T09:50:00;94217.30;;;3.74;76.80
43553;BME280;29153;42.696;23.218;2023-04-05T09:52:29;94216.98;;;3.87;79.71
43553;BME280;29153;42.696;23.218;2023-04-05T09:55:02;94220.59;;;4.00;77.75
43553;BME280;29153;42.696;23.218;2023-04-05T09:57:39;94228.29;;;3.90;76.32
43553;BME280;29153;42.696;23.218;2023-04-05T10:00:04;94226.83;;;3.96;75.23
43553;BME280;29153;42.696;23.218;2023-04-05T10:02:36;94232.59;;;4.15;75.33
43553;BME280;29153;42.696;23.218;2023-04-05T10:05:09;94231.27;;;3.96;71.81
43553;BME280;29153;42.696;23.218;2023-04-05T10:07:42;94226.07;;;3.82;73.22
43553;BME280;29153;42.696;23.218;2023-04-05T10:10:10;94224.31;;;4.04;76.42
43553;BME280;29153;42.696;23.218;2023-04-05T10:12:39;94226.66;;;4.03;74.96
43553;BME280;29153;42.696;23.218;2023-04-05T10:15:08;94224.95;;;3.94;75.04
43553;BME280;29153;42.696;23.218;2023-04-05T10:20:24;94221.11;;;3.83;73.96
43553;BME280;29153;42.696;23.218;2023-04-05T10:28:36;94229.92;;;4.10;74.59
43553;BME280;29153;42.696;23.218;2023-04-05T10:31:11;94225.05;;;4.38;75.07
43553;BME280;29153;42.696;23.218;2023-04-05T10:33:45;94218.94;;;4.32;73.08
43553;BME280;29153;42.696;23.218;2023-04-05T10:36:38;94222.36;;;4.52;73.39
43553;BME280;29153;42.696;23.218;2023-04-05T10:41:41;94217.48;;;5.07;72.69
43553;BME280;29153;42.696;23.218;2023-04-05T10:44:09;94226.54;;;4.72;72.70
43553;BME280;29153;42.696;23.218;2023-04-05T10:46:39;94221.45;;;5.33;74.02
43553;BME280;29153;42.696;23.218;2023-04-05T10:51:58;94220.28;;;5.80;69.86
43553;BME280;29153;42.696;23.218;2023-04-05T10:54:26;94227.16;;;5.55;66.48
43553;BME280;29153;42.696;23.218;2023-04-05T10:56:55;94222.53;;;5.67;68.16
43553;BME280;29153;42.696;23.218;2023-04-05T10:59:24;94230.94;;;5.66;69.38
43553;BME280;29153;42.696;23.218;2023-04-05T11:01:57;94226.53;;;5.74;70.25
43553;BME280;29153;42.696;23.218;2023-04-05T11:04:27;94224.69;;;5.72;67.42
43553;BME280;29153;42.696;23.218;2023-04-05T11:07:19;94224.46;;;5.76;69.53
43553;BME280;29153;42.696;23.218;2023-04-05T11:09:58;94231.96;;;5.36;69.00
43553;BME280;29153;42.696;23.218;2023-04-05T11:23:23;94235.08;;;4.84;70.01
43553;BME280;29153;42.696;23.218;2023-04-05T11:26:02;94240.02;;;4.81;68.51
43553;BME280;29153;42.696;23.218;2023-04-05T11:28:36;94232.65;;;4.78;68.93
43553;BME280;29153;42.696;23.218;2023-04-05T11:31:15;94234.41;;;4.72;71.50
43553;BME280;29153;42.696;23.218;2023-04-05T11:36:44;94228.48;;;5.03;69.70
43553;BME280;29153;42.696;23.218;2023-04-05T11:42:01;94227.60;;;5.20;70.30
43553;BME280;29153;42.696;23.218;2023-04-05T11:44:46;94228.33;;;5.13;69.61
43553;BME280;29153;42.696;23.218;2023-04-05T11:47:18;94226.00;;;4.92;70.86
43553;BME280;29153;42.696;23.218;2023-04-05T11:49:50;94231.11;;;5.03;69.54
43553;BME280;29153;42.696;23.218;2023-04-05T11:52:19;94232.98;;;4.43;69.53
43553;BME280;29153;42.696;23.218;2023-04-05T11:54:47;94228.91;;;4.33;71.54
43553;BME280;29153;42.696;23.218;2023-04-05T11:57:22;94229.72;;;4.14;71.66
43553;BME280;29153;42.696;23.218;2023-04-05T12:00:03;94230.41;;;4.26;71.32
43553;BME280;29153;42.696;23.218;2023-04-05T12:05:21;94230.33;;;4.21;72.72
43553;BME280;29153;42.696;23.218;2023-04-05T12:07:58;94232.41;;;4.19;72.59
43553;BME280;29153;42.696;23.218;2023-04-05T12:10:47;94236.66;;;4.23;72.53
43553;BME280;29153;42.696;23.218;2023-04-05T12:13:31;94237.45;;;4.23;71.82
43553;BME280;29153;42.696;23.218;2023-04-05T12:19:01;94226.36;;;4.38;72.45
43553;BME280;29153;42.696;23.218;2023-04-05T12:21:30;94224.11;;;4.08;72.79
43553;BME280;29153;42.696;23.218;2023-04-05T12:24:17;94222.61;;;4.31;72.91
43553;BME280;29153;42.696;23.218;2023-04-05T12:27:01;94223.23;;;4.19;73.19
43553;BME280;29153;42.696;23.218;2023-04-05T12:29:28;94230.77;;;4.16;72.20
43553;BME280;29153;42.696;23.218;2023-04-05T12:31:54;94222.87;;;4.13;73.24
43553;BME280;29153;42.696;23.218;2023-04-05T12:34:23;94225.60;;;4.01;72.06
43553;BME280;29153;42.696;23.218;2023-04-05T12:36:54;94219.20;;;4.31;74.65
43553;BME280;29153;42.696;23.218;2023-04-05T12:39:22;94224.94;;;4.11;72.02
43553;BME280;29153;42.696;23.218;2023-04-05T12:41:57;94224.11;;;4.08;73.40
43553;BME280;29153;42.696;23.218;2023-04-05T12:44:30;94219.97;;;4.12;71.98
43553;BME280;29153;42.696;23.218;2023-04-05T12:47:01;94220.17;;;3.89;73.38
43553;BME280;29153;42.696;23.218;2023-04-05T12:49:38;94223.13;;;3.95;75.31
43553;BME280;29153;42.696;23.218;2023-04-05T12:52:05;94236.09;;;4.01;75.45
43553;BME280;29153;42.696;23.218;2023-04-05T12:54:34;94240.93;;;3.93;72.75
43553;BME280;29153;42.696;23.218;2023-04-05T12:57:02;94233.33;;;3.94;73.84
43553;BME280;29153;42.696;23.218;2023-04-05T12:59:34;94235.38;;;3.89;73.40
43553;BME280;29153;42.696;23.218;2023-04-05T13:02:02;94233.27;;;3.72;72.83
43553;BME280;29153;42.696;23.218;2023-04-05T13:04:29;94198.66;;;3.23;72.89
43553;BME280;29153;42.696;23.218;2023-04-05T13:06:58;94237.71;;;3.55;74.18
43553;BME280;29153;42.696;23.218;2023-04-05T13:09:26;94245.31;;;3.56;73.20
43553;BME280;29153;42.696;23.218;2023-04-05T13:11:54;94237.31;;;3.63;75.50
43553;BME280;29153;42.696;23.218;2023-04-05T13:14:22;94236.13;;;3.71;75.61
43553;BME280;29153;42.696;23.218;2023-04-05T13:16:49;94245.97;;;3.80;71.88
43553;BME280;29153;42.696;23.218;2023-04-05T13:19:17;94237.31;;;3.96;74.43
43553;BME280;29153;42.696;23.218;2023-04-05T13:21:45;94237.80;;;4.12;72.83
43553;BME280;29153;42.696;23.218;2023-04-05T13:24:13;94249.09;;;4.13;72.07
43553;BME280;29153;42.696;23.218;2023-04-05T13:26:41;94241.10;;;4.22;72.40
43553;BME280;29153;42.696;23.218;2023-04-05T13:29:09;94239.87;;;4.27;74.74
43553;BME280;29153;42.696;23.218;2023-04-05T13:31:38;94240.77;;;4.35;73.00
43553;BME280;29153;42.696;23.218;2023-04-05T13:34:06;94230.27;;;4.35;71.44
43553;BME280;29153;42.696;23.218;2023-04-05T13:36:34;94230.67;;;4.46;72.57
43553;BME280;29153;42.696;23.218;2023-04-05T13:39:01;94232.05;;;4.32;71.31
43553;BME280;29153;42.696;23.218;2023-04-05T13:41:29;94228.81;;;4.25;72.71
43553;BME280;29153;42.696;23.218;2023-04-05T13:43:56;94227.77;;;4.45;72.51
43553;BME280;29153;42.696;23.218;2023-04-05T13:46:24;94237.16;;;4.61;71.62
43553;BME280;29153;42.696;23.218;2023-04-05T13:48:52;94242.41;;;4.61;70.61
43553;BME280;29153;42.696;23.218;2023-04-05T13:51:32;94238.91;;;4.17;71.33
43553;BME280;29153;42.696;23.218;2023-04-05T13:56:49;94239.54;;;3.88;75.80
43553;BME280;29153;42.696;23.218;2023-04-05T13:59:17;94241.78;;;3.98;75.31
43553;BME280;29153;42.696;23.218;2023-04-05T14:01:46;94250.55;;;4.06;73.53
43553;BME280;29153;42.696;23.218;2023-04-05T14:04:14;94247.73;;;3.60;73.81
43553;BME280;29153;42.696;23.218;2023-04-05T14:06:42;94248.76;;;3.59;73.87
43553;BME280;29153;42.696;23.218;2023-04-05T14:09:10;94246.63;;;3.90;75.69
43553;BME280;29153;42.696;23.218;2023-04-05T14:11:38;94250.76;;;3.86;73.35
43553;BME280;29153;42.696;23.218;2023-04-05T14:14:06;94256.88;;;3.75;72.20
43553;BME280;29153;42.696;23.218;2023-04-05T14:16:34;94252.06;;;3.69;72.54
43553;BME280;29153;42.696;23.218;2023-04-05T14:19:04;94255.17;;;3.66;73.23
43553;BME280;29153;42.696;23.218;2023-04-05T14:21:31;94256.48;;;3.83;76.40